createdAt,value
2023-11-16T00:01:03.110Z,8.50
2023-11-16T00:03:29.740Z,8.37
2023-11-16T00:05:56.742Z,8.52
2023-11-16T00:08:23.255Z,8.53
2023-11-16T00:10:50.118Z,8.67
2023-11-16T00:13:16.811Z,8.68
2023-11-16T00:15:43.439Z,8.75
2023-11-16T00:18:10.470Z,8.78
2023-11-16T00:20:39.695Z,8.85
2023-11-16T00:23:06.323Z,8.89
2023-11-16T00:25:32.881Z,8.95
2023-11-16T00:28:00.689Z,9.02
2023-11-16T00:30:27.884Z,9.02
2023-11-16T00:32:54.890Z,9.05
2023-11-16T00:35:22.312Z,9.01
2023-11-16T00:37:52.205Z,9.01
2023-11-16T00:40:19.142Z,9.06
2023-11-16T00:42:45.699Z,9.08
2023-11-16T00:45:12.272Z,9.18
2023-11-16T00:47:40.633Z,9.20
2023-11-16T00:50:09.058Z,9.13
2023-11-16T00:52:35.689Z,9.07
2023-11-16T00:55:02.593Z,9.06
2023-11-16T00:57:29.769Z,9.20
2023-11-16T00:59:56.861Z,9.10
2023-11-16T01:02:23.378Z,9.09
2023-11-16T01:04:49.931Z,9.01
2023-11-16T01:07:16.457Z,9.06
2023-11-16T01:09:43.945Z,8.91
2023-11-16T01:12:16.653Z,8.89
2023-11-16T01:14:44.420Z,8.77
2023-11-16T01:17:19.785Z,9.02
2023-11-16T01:19:48.143Z,9.02
2023-11-16T01:22:17.348Z,9.06
2023-11-16T01:24:46.847Z,8.89
2023-11-16T01:27:19.358Z,8.97
2023-11-16T01:29:46.849Z,9.00
2023-11-16T01:32:14.628Z,8.98
2023-11-16T01:34:43.231Z,8.95
2023-11-16T01:37:10.694Z,8.93
2023-11-16T01:39:40.562Z,8.81
2023-11-16T01:42:10.847Z,8.71
2023-11-16T01:44:38.318Z,8.63
2023-11-16T01:47:09.422Z,8.46
2023-11-16T01:49:36.806Z,8.48
2023-11-16T01:52:05.304Z,8.46
2023-11-16T01:54:33.175Z,8.37
2023-11-16T01:57:00.223Z,8.43
2023-11-16T01:59:29.225Z,8.43
2023-11-16T02:01:58.065Z,8.42
2023-11-16T02:04:25.375Z,8.47
2023-11-16T02:06:54.729Z,8.46
2023-11-16T02:09:22.708Z,8.54
2023-11-16T02:11:49.308Z,8.42
2023-11-16T02:14:15.794Z,8.48
2023-11-16T02:16:42.491Z,8.57
2023-11-16T02:19:29.816Z,8.54
2023-11-16T02:21:56.755Z,8.54
2023-11-16T02:24:23.584Z,8.52
2023-11-16T02:26:52.036Z,8.56
2023-11-16T02:29:18.636Z,8.47
2023-11-16T02:31:45.115Z,8.51
2023-11-16T02:34:12.103Z,8.43
2023-11-16T02:36:38.694Z,8.45
2023-11-16T02:39:07.963Z,8.48
2023-11-16T02:41:35.609Z,8.33
2023-11-16T02:44:02.124Z,8.31
2023-11-16T02:46:28.646Z,8.17
2023-11-16T02:48:55.236Z,8.27
2023-11-16T02:51:21.853Z,8.25
2023-11-16T02:53:48.383Z,8.10
2023-11-16T02:56:14.932Z,8.24
2023-11-16T02:58:45.244Z,8.24
2023-11-16T03:01:14.173Z,8.22
2023-11-16T03:03:41.781Z,8.19
2023-11-16T03:06:09.815Z,8.14
2023-11-16T03:08:37.022Z,7.97
2023-11-16T03:11:04.365Z,8.07
2023-11-16T03:13:31.125Z,8.02
2023-11-16T03:15:57.838Z,7.97
2023-11-16T03:18:24.791Z,7.88
2023-11-16T03:20:51.376Z,7.95
2023-11-16T03:23:17.997Z,7.99
2023-11-16T03:25:44.793Z,8.00
2023-11-16T03:28:11.517Z,8.07
2023-11-16T03:30:39.656Z,8.09
2023-11-16T03:33:10.009Z,8.18
2023-11-16T03:35:37.055Z,8.03
2023-11-16T03:38:04.158Z,8.07
2023-11-16T03:40:31.869Z,8.12
2023-11-16T03:42:58.863Z,8.12
2023-11-16T03:45:25.551Z,8.15
2023-11-16T03:47:52.383Z,8.06
2023-11-16T03:50:19.205Z,8.08
2023-11-16T03:52:46.580Z,8.03
2023-11-16T03:55:14.237Z,8.02
2023-11-16T03:57:41.551Z,8.03
2023-11-16T04:00:09.454Z,7.96
2023-11-16T04:02:37.115Z,7.92
2023-11-16T04:05:06.306Z,7.88
2023-11-16T04:07:35.391Z,7.80
2023-11-16T04:10:03.241Z,7.78
2023-11-16T04:14:56.285Z,7.76
2023-11-16T04:17:22.909Z,7.79
2023-11-16T04:19:49.664Z,7.77
2023-11-16T04:22:16.440Z,7.85
2023-11-16T04:24:43.147Z,7.81
2023-11-16T04:27:09.913Z,7.74
2023-11-16T04:29:36.463Z,7.71
2023-11-16T04:32:03.092Z,7.72
2023-11-16T04:34:29.730Z,7.60
2023-11-16T04:36:57.727Z,7.61
2023-11-16T04:39:24.393Z,7.60
2023-11-16T04:41:50.940Z,7.53
2023-11-16T04:44:17.444Z,7.44
2023-11-16T04:46:47.548Z,7.33
2023-11-16T04:49:15.055Z,7.34
2023-11-16T04:51:42.181Z,7.28
2023-11-16T04:54:08.983Z,7.29
2023-11-16T04:56:37.713Z,7.32
2023-11-16T04:59:07.142Z,7.26
2023-11-16T05:01:33.715Z,7.25
2023-11-16T05:04:00.375Z,7.28
2023-11-16T05:06:27.027Z,7.28
2023-11-16T05:08:53.569Z,7.30
2023-11-16T05:11:26.042Z,7.31
2023-11-16T05:13:52.928Z,7.32
2023-11-16T05:16:19.766Z,7.34
2023-11-16T05:18:47.563Z,7.19
2023-11-16T05:21:17.726Z,7.20
2023-11-16T05:23:45.010Z,7.31
2023-11-16T05:26:12.206Z,7.33
2023-11-16T05:28:38.922Z,7.31
2023-11-16T05:31:05.871Z,7.33
2023-11-16T05:33:35.620Z,7.29
2023-11-16T05:36:02.375Z,7.24
2023-11-16T05:38:29.143Z,7.30
2023-11-16T05:40:55.756Z,7.26
2023-11-16T05:43:22.542Z,7.20
2023-11-16T05:45:49.583Z,7.21
2023-11-16T05:48:16.952Z,7.12
2023-11-16T05:50:44.503Z,7.18
2023-11-16T05:53:12.388Z,7.21
2023-11-16T05:55:39.262Z,7.19
2023-11-16T05:58:07.140Z,7.19
2023-11-16T06:00:38.147Z,7.12
2023-11-16T06:03:06.119Z,7.12
2023-11-16T06:05:37.321Z,7.07
2023-11-16T06:08:04.462Z,7.07
2023-11-16T06:10:31.506Z,7.14
2023-11-16T06:13:00.597Z,7.15
2023-11-16T06:15:29.941Z,7.07
2023-11-16T06:17:59.267Z,7.04
2023-11-16T06:20:26.113Z,7.07
2023-11-16T06:22:52.717Z,7.07
2023-11-16T06:25:19.368Z,7.06
2023-11-16T06:27:47.726Z,7.01
2023-11-16T06:30:14.964Z,7.01
2023-11-16T06:32:43.437Z,7.11
2023-11-16T06:35:13.303Z,7.16
2023-11-16T06:37:39.879Z,7.17
2023-11-16T06:40:10.803Z,7.20
2023-11-16T06:42:39.033Z,7.29
2023-11-16T06:45:06.942Z,7.33
2023-11-16T06:47:35.255Z,7.39
2023-11-16T06:50:04.564Z,7.41
2023-11-16T06:52:31.681Z,7.38
2023-11-16T06:54:58.281Z,7.40
2023-11-16T06:57:27.666Z,7.43
2023-11-16T06:59:54.714Z,7.38
2023-11-16T07:02:24.140Z,7.57
2023-11-16T07:04:50.847Z,7.56
2023-11-16T07:07:18.155Z,7.49
2023-11-16T07:09:50.811Z,7.68
2023-11-16T07:12:21.872Z,7.76
2023-11-16T07:14:54.377Z,7.81
2023-11-16T07:17:22.303Z,7.92
2023-11-16T07:19:50.151Z,8.06
2023-11-16T07:22:16.853Z,8.13
2023-11-16T07:24:45.540Z,8.17
2023-11-16T07:27:13.307Z,8.12
2023-11-16T07:29:45.082Z,8.23
2023-11-16T07:32:13.087Z,8.36
2023-11-16T07:34:40.922Z,8.47
2023-11-16T07:37:08.130Z,8.47
2023-11-16T07:39:35.575Z,8.45
2023-11-16T07:42:02.179Z,8.45
2023-11-16T07:44:28.712Z,8.48
2023-11-16T07:46:55.543Z,8.48
2023-11-16T07:49:22.431Z,8.51
2023-11-16T07:51:49.019Z,8.66
2023-11-16T07:54:16.989Z,8.74
2023-11-16T07:56:56.378Z,8.82
2023-11-16T07:59:31.929Z,8.85
2023-11-16T08:02:03.137Z,8.90
2023-11-16T08:04:33.168Z,8.99
2023-11-16T08:07:01.533Z,9.12
2023-11-16T08:09:28.225Z,9.15
2023-11-16T08:11:59.307Z,9.12
2023-11-16T08:14:27.016Z,9.26
2023-11-16T08:16:57.950Z,9.32
2023-11-16T08:19:26.805Z,9.40
2023-11-16T08:21:58.304Z,9.62
2023-11-16T08:24:29.112Z,9.61
2023-11-16T08:26:59.958Z,9.57
2023-11-16T08:29:27.111Z,9.69
2023-11-16T08:31:58.256Z,9.79
2023-11-16T08:34:28.129Z,9.80
2023-11-16T08:36:54.789Z,9.75
2023-11-16T08:39:21.485Z,9.90
2023-11-16T08:41:49.965Z,10.07
2023-11-16T08:44:19.717Z,10.01
2023-11-16T08:46:53.673Z,10.12
2023-11-16T08:49:20.626Z,10.15
2023-11-16T08:51:48.733Z,10.11
2023-11-16T08:54:15.833Z,10.21
2023-11-16T08:56:44.502Z,10.20
2023-11-16T08:59:12.603Z,10.24
2023-11-16T09:01:40.047Z,10.36
2023-11-16T09:04:07.909Z,10.47
2023-11-16T09:06:35.219Z,10.55
2023-11-16T09:09:20.517Z,10.54
2023-11-16T09:11:48.297Z,10.77
2023-11-16T09:14:15.025Z,10.81
2023-11-16T09:16:43.587Z,10.85
2023-11-16T09:19:12.811Z,10.87
2023-11-16T09:21:41.523Z,10.86
2023-11-16T09:24:09.075Z,10.93
2023-11-16T09:26:35.588Z,11.01
2023-11-16T09:29:07.988Z,11.19
2023-11-16T09:31:37.993Z,11.28
2023-11-16T09:34:04.714Z,11.43
2023-11-16T09:36:31.301Z,11.49
2023-11-16T09:38:58.835Z,11.48
2023-11-16T09:41:29.927Z,11.48
2023-11-16T09:44:03.218Z,11.45
2023-11-16T09:46:32.773Z,11.67
2023-11-16T09:49:00.123Z,11.72
2023-11-16T09:51:30.861Z,11.72
2023-11-16T09:54:02.254Z,11.78
2023-11-16T09:56:36.526Z,11.76
2023-11-16T09:59:26.722Z,11.78
2023-11-16T10:02:08.640Z,12.04
2023-11-16T10:04:36.385Z,11.98
2023-11-16T10:07:06.547Z,12.09
2023-11-16T10:09:54.322Z,12.17
2023-11-16T10:12:21.712Z,12.15
2023-11-16T10:14:53.969Z,12.04
2023-11-16T10:17:23.004Z,11.99
2023-11-16T10:19:51.572Z,12.05
2023-11-16T10:22:18.449Z,12.03
2023-11-16T10:24:46.069Z,12.14
2023-11-16T10:27:13.032Z,12.13
2023-11-16T10:29:41.052Z,12.18
2023-11-16T10:32:10.530Z,12.20
2023-11-16T10:34:38.276Z,12.32
2023-11-16T10:37:06.162Z,12.33
2023-11-16T10:39:32.776Z,12.26
2023-11-16T10:42:04.963Z,12.41
2023-11-16T10:44:33.055Z,12.27
2023-11-16T10:47:02.434Z,12.34
2023-11-16T10:49:30.296Z,12.33
2023-11-16T10:52:02.201Z,12.38
2023-11-16T10:54:33.504Z,12.39
2023-11-16T10:57:00.425Z,12.38
2023-11-16T10:59:28.790Z,12.48
2023-11-16T11:01:56.150Z,12.58
2023-11-16T11:04:23.994Z,12.72
2023-11-16T11:06:52.229Z,12.52
2023-11-16T11:09:24.006Z,12.62
2023-11-16T11:11:52.979Z,12.73
2023-11-16T11:14:27.302Z,12.78
2023-11-16T11:16:54.047Z,12.74
2023-11-16T11:19:32.202Z,12.58
2023-11-16T11:22:02.151Z,12.77
2023-11-16T11:24:30.284Z,12.59
2023-11-16T11:27:01.786Z,12.63
2023-11-16T11:29:29.075Z,12.64
2023-11-16T11:32:08.848Z,12.76
2023-11-16T11:34:40.475Z,12.76
2023-11-16T11:37:14.453Z,12.97
2023-11-16T11:39:43.123Z,12.87
2023-11-16T11:42:11.506Z,12.88
2023-11-16T11:44:38.209Z,12.87
2023-11-16T11:47:05.504Z,13.13
2023-11-16T11:49:32.071Z,13.00
2023-11-16T11:52:00.892Z,12.96
2023-11-16T11:54:37.860Z,12.89
2023-11-16T11:57:06.358Z,13.00
2023-11-16T11:59:33.244Z,13.02
2023-11-16T12:02:10.535Z,12.93
2023-11-16T12:04:38.093Z,13.12
2023-11-16T12:07:08.697Z,13.09
2023-11-16T12:09:39.597Z,13.10
2023-11-16T12:12:07.259Z,13.10
2023-11-16T12:14:50.431Z,13.13
2023-11-16T12:17:18.411Z,12.93
2023-11-16T12:19:49.895Z,13.14
2023-11-16T12:22:17.502Z,13.25
2023-11-16T12:24:48.098Z,13.05
2023-11-16T12:27:16.447Z,13.04
2023-11-16T12:29:54.168Z,13.04
2023-11-16T12:32:20.783Z,12.95
2023-11-16T12:34:49.308Z,12.94
2023-11-16T12:37:15.823Z,12.92
2023-11-16T12:39:42.478Z,13.05
2023-11-16T12:42:09.950Z,13.07
2023-11-16T12:44:37.107Z,13.05
2023-11-16T12:47:04.545Z,13.04
2023-11-16T12:49:31.159Z,13.08
2023-11-16T12:51:58.066Z,13.02
2023-11-16T12:54:24.703Z,13.03
2023-11-16T12:56:53.394Z,12.95
2023-11-16T12:59:19.952Z,12.86
2023-11-16T13:01:46.639Z,12.87
2023-11-16T13:04:14.550Z,12.99
2023-11-16T13:06:41.356Z,13.00
2023-11-16T13:09:08.607Z,13.17
2023-11-16T13:11:38.367Z,13.18
2023-11-16T13:14:04.946Z,13.30
2023-11-16T13:16:31.723Z,13.31
2023-11-16T13:19:00.236Z,13.36
2023-11-16T13:21:27.002Z,13.35
2023-11-16T13:23:54.731Z,13.32
2023-11-16T13:26:22.073Z,13.36
2023-11-16T13:28:48.695Z,13.22
2023-11-16T13:31:15.981Z,13.11
2023-11-16T13:33:42.582Z,13.24
2023-11-16T13:36:09.679Z,13.07
2023-11-16T13:38:36.279Z,12.87
2023-11-16T13:41:03.327Z,13.03
2023-11-16T13:43:29.813Z,13.07
2023-11-16T13:45:58.018Z,13.12
2023-11-16T13:48:25.579Z,13.03
2023-11-16T13:50:53.520Z,12.90
2023-11-16T13:53:20.582Z,12.59
2023-11-16T13:55:47.659Z,12.33
2023-11-16T13:58:15.088Z,12.36
2023-11-16T14:00:42.666Z,12.20
2023-11-16T14:03:11.338Z,12.08
2023-11-16T14:05:38.080Z,11.99
2023-11-16T14:08:05.282Z,11.92
2023-11-16T14:10:31.940Z,11.85
2023-11-16T14:12:58.618Z,11.82
2023-11-16T14:15:25.405Z,11.89
2023-11-16T14:17:53.011Z,11.69
2023-11-16T14:20:19.826Z,11.61
2023-11-16T14:22:46.419Z,11.59
2023-11-16T14:25:13.138Z,11.32
2023-11-16T14:27:39.834Z,11.31
2023-11-16T14:30:07.502Z,11.35
2023-11-16T14:32:34.529Z,11.38
2023-11-16T14:35:14.679Z,11.56
2023-11-16T14:37:48.402Z,11.58
2023-11-16T14:40:15.193Z,11.45
2023-11-16T14:42:41.932Z,11.08
2023-11-16T14:45:09.828Z,11.21
2023-11-16T14:47:39.864Z,11.37
2023-11-16T14:50:10.306Z,11.47
2023-11-16T14:52:37.564Z,11.09
2023-11-16T14:55:04.987Z,10.85
2023-11-16T14:57:34.294Z,10.86
2023-11-16T15:00:02.599Z,10.79
2023-11-16T15:02:29.465Z,10.92
2023-11-16T15:05:04.941Z,10.67
2023-11-16T15:07:36.545Z,10.29
2023-11-16T15:10:12.158Z,10.25
2023-11-16T15:12:39.178Z,10.13
2023-11-16T15:15:06.273Z,10.31
2023-11-16T15:17:32.811Z,10.24
2023-11-16T15:20:05.556Z,10.19
2023-11-16T15:22:43.508Z,10.08
2023-11-16T15:25:10.123Z,10.16
2023-11-16T15:27:36.633Z,10.01
2023-11-16T15:30:05.478Z,10.13
2023-11-16T15:32:33.106Z,10.10
2023-11-16T15:34:59.733Z,10.30
2023-11-16T15:37:26.915Z,10.33
2023-11-16T15:39:56.145Z,10.35
2023-11-16T15:42:25.278Z,10.31
2023-11-16T15:44:51.784Z,10.28
2023-11-16T15:47:18.294Z,10.23
2023-11-16T15:49:45.173Z,10.13
2023-11-16T15:52:12.059Z,10.13
2023-11-16T15:54:38.597Z,10.09
2023-11-16T15:57:06.367Z,10.12
2023-11-16T15:59:32.873Z,10.27
2023-11-16T16:02:00.135Z,10.34
2023-11-16T16:04:26.941Z,10.39
2023-11-16T16:06:53.539Z,10.35
2023-11-16T16:09:20.321Z,10.26
2023-11-16T16:11:46.833Z,10.44
2023-11-16T16:14:13.384Z,10.54
2023-11-16T16:16:40.014Z,10.58
2023-11-16T16:19:06.672Z,10.65
2023-11-16T16:21:34.279Z,10.54
2023-11-16T16:24:00.854Z,10.48
2023-11-16T16:26:28.095Z,10.36
2023-11-16T16:28:54.805Z,10.34
2023-11-16T16:31:23.623Z,10.35
2023-11-16T16:33:51.105Z,10.35
2023-11-16T16:36:17.709Z,10.34
2023-11-16T16:38:44.247Z,10.34
2023-11-16T16:41:14.012Z,10.48
2023-11-16T16:43:41.073Z,10.57
2023-11-16T16:46:18.414Z,10.50
2023-11-16T16:48:46.450Z,10.38
2023-11-16T16:51:13.125Z,10.37
2023-11-16T16:53:39.638Z,10.43
2023-11-16T16:56:07.653Z,10.54
2023-11-16T16:58:34.695Z,10.42
2023-11-16T17:01:01.279Z,10.48
2023-11-16T17:03:27.898Z,10.26
2023-11-16T17:05:54.399Z,10.46
2023-11-16T17:08:20.957Z,10.34
2023-11-16T17:10:47.676Z,10.36
2023-11-16T17:13:14.305Z,10.42
2023-11-16T17:15:41.066Z,10.50
2023-11-16T17:18:08.116Z,10.27
2023-11-16T17:20:34.900Z,10.20
2023-11-16T17:23:01.823Z,10.25
2023-11-16T17:25:28.665Z,10.34
2023-11-16T17:27:55.304Z,10.31
2023-11-16T17:30:22.485Z,10.25
2023-11-16T17:32:49.077Z,10.31
2023-11-16T17:35:16.630Z,10.35
2023-11-16T17:37:43.763Z,10.37
2023-11-16T17:40:11.243Z,10.25
2023-11-16T17:42:37.919Z,10.23
2023-11-16T17:45:06.544Z,10.21
2023-11-16T17:47:33.184Z,10.23
2023-11-16T17:50:00.065Z,10.33
2023-11-16T17:52:26.743Z,10.39
2023-11-16T17:54:53.330Z,10.36
2023-11-16T17:57:20.259Z,10.33
2023-11-16T17:59:47.351Z,10.20
2023-11-16T18:02:14.786Z,10.19
2023-11-16T18:04:43.358Z,10.03
2023-11-16T18:07:10.194Z,9.96
2023-11-16T18:09:37.645Z,10.08
2023-11-16T18:12:14.853Z,9.99
2023-11-16T18:14:42.137Z,10.04
2023-11-16T18:17:09.006Z,10.11
2023-11-16T18:19:35.526Z,9.98
2023-11-16T18:22:02.215Z,10.05
2023-11-16T18:24:28.914Z,10.15
2023-11-16T18:26:56.285Z,10.19
2023-11-16T18:29:23.280Z,9.92
2023-11-16T18:31:50.948Z,9.95
2023-11-16T18:34:26.951Z,9.91
2023-11-16T18:36:53.756Z,9.95
2023-11-16T18:39:20.335Z,9.72
2023-11-16T18:41:46.946Z,9.83
2023-11-16T18:44:13.415Z,9.85
2023-11-16T18:46:40.510Z,9.85
2023-11-16T18:49:07.242Z,9.88
2023-11-16T18:51:37.288Z,9.88
2023-11-16T18:54:04.273Z,9.93
2023-11-16T18:56:30.734Z,9.87
2023-11-16T18:58:57.972Z,9.88
2023-11-16T19:01:24.584Z,9.92
2023-11-16T19:03:52.449Z,9.85
2023-11-16T19:06:19.004Z,9.89
2023-11-16T19:08:45.792Z,9.99
2023-11-16T19:11:12.303Z,9.86
2023-11-16T19:13:41.602Z,9.97
2023-11-16T19:16:09.439Z,9.92
2023-11-16T19:18:37.426Z,9.84
2023-11-16T19:21:05.875Z,9.85
2023-11-16T19:23:32.674Z,9.81
2023-11-16T19:25:59.654Z,9.76
2023-11-16T19:28:28.688Z,9.82
2023-11-16T19:30:55.863Z,9.85
2023-11-16T19:33:24.666Z,10.01
2023-11-16T19:35:51.203Z,10.06
2023-11-16T19:38:18.294Z,10.06
2023-11-16T19:40:45.002Z,10.02
2023-11-16T19:43:12.511Z,9.83
2023-11-16T19:45:40.155Z,9.83
2023-11-16T19:48:08.247Z,9.73
2023-11-16T19:50:39.361Z,9.70
2023-11-16T19:53:07.067Z,9.79
2023-11-16T19:55:34.170Z,9.72
2023-11-16T19:58:00.748Z,9.77
2023-11-16T20:00:28.089Z,9.84
2023-11-16T20:02:54.864Z,9.87
2023-11-16T20:05:21.484Z,9.80
2023-11-16T20:07:47.947Z,9.86
2023-11-16T20:10:16.390Z,9.70
2023-11-16T20:12:43.134Z,9.69
2023-11-16T20:15:11.837Z,9.73
2023-11-16T20:17:42.324Z,9.84
2023-11-16T20:20:15.508Z,9.84
2023-11-16T20:22:48.579Z,9.72
2023-11-16T20:25:18.683Z,9.75
2023-11-16T20:27:46.118Z,9.73
2023-11-16T20:30:12.966Z,9.65
2023-11-16T20:32:45.733Z,9.65
2023-11-16T20:35:13.831Z,9.53
2023-11-16T20:37:44.059Z,9.52
2023-11-16T20:40:13.247Z,9.60
2023-11-16T20:42:43.081Z,9.47
2023-11-16T20:45:12.934Z,9.45
2023-11-16T20:47:40.454Z,9.50
2023-11-16T20:50:08.412Z,9.51
2023-11-16T20:52:35.636Z,9.57
2023-11-16T20:55:02.237Z,9.46
2023-11-16T20:57:28.859Z,9.37
2023-11-16T20:59:57.199Z,9.48
2023-11-16T21:02:23.777Z,9.41
2023-11-16T21:04:50.457Z,9.46
2023-11-16T21:07:17.856Z,9.32
2023-11-16T21:09:49.052Z,9.31
2023-11-16T21:12:15.760Z,9.26
2023-11-16T21:14:42.254Z,9.30
2023-11-16T21:17:12.226Z,9.19
2023-11-16T21:19:39.116Z,9.25
2023-11-16T21:22:06.317Z,9.30
2023-11-16T21:24:32.903Z,9.30
2023-11-16T21:27:00.240Z,9.28
2023-11-16T21:29:27.221Z,9.29
2023-11-16T21:31:54.128Z,9.17
2023-11-16T21:34:21.614Z,9.03
2023-11-16T21:36:48.426Z,8.89
2023-11-16T21:39:17.562Z,9.05
2023-11-16T21:41:45.561Z,9.12
2023-11-16T21:44:12.993Z,9.07
2023-11-16T21:46:40.002Z,9.03
2023-11-16T21:49:07.000Z,9.08
2023-11-16T21:51:33.497Z,9.00
2023-11-16T21:53:59.978Z,9.08
2023-11-16T21:56:26.449Z,9.11
2023-11-16T21:58:52.909Z,9.07
2023-11-16T22:01:20.277Z,9.05
2023-11-16T22:03:47.033Z,9.07
2023-11-16T22:06:13.668Z,9.07
2023-11-16T22:08:41.208Z,9.08
2023-11-16T22:11:07.809Z,9.19
2023-11-16T22:13:34.409Z,9.04
2023-11-16T22:16:00.987Z,9.07
2023-11-16T22:18:27.616Z,9.06
2023-11-16T22:20:54.130Z,9.00
2023-11-16T22:23:20.670Z,8.99
2023-11-16T22:25:47.181Z,8.99
2023-11-16T22:28:14.835Z,8.91
2023-11-16T22:30:42.839Z,8.94
2023-11-16T22:33:09.647Z,8.96
2023-11-16T22:35:36.698Z,8.92
2023-11-16T22:38:03.616Z,8.97
2023-11-16T22:40:31.688Z,8.95
2023-11-16T22:42:58.387Z,9.06
2023-11-16T22:45:26.177Z,8.99
2023-11-16T22:47:53.075Z,9.01
2023-11-16T22:50:20.390Z,9.03
2023-11-16T22:52:47.288Z,8.92
2023-11-16T22:55:15.730Z,8.94
2023-11-16T22:57:46.376Z,8.99
2023-11-16T23:00:21.841Z,8.95
2023-11-16T23:02:48.622Z,8.96
2023-11-16T23:05:15.367Z,8.99
2023-11-16T23:07:42.302Z,8.98
2023-11-16T23:10:11.668Z,9.02
2023-11-16T23:12:39.096Z,8.91
2023-11-16T23:15:06.306Z,9.03
2023-11-16T23:17:32.968Z,9.07
2023-11-16T23:19:59.603Z,9.09
2023-11-16T23:22:26.167Z,9.12
2023-11-16T23:24:52.720Z,9.15
2023-11-16T23:27:20.200Z,9.12
2023-11-16T23:29:46.719Z,9.08
2023-11-16T23:32:13.343Z,9.18
2023-11-16T23:34:41.694Z,8.99
2023-11-16T23:37:09.532Z,9.12
2023-11-16T23:39:36.739Z,9.02
2023-11-16T23:42:04.501Z,8.98
2023-11-16T23:44:31.507Z,8.93
2023-11-16T23:46:58.061Z,8.97
2023-11-16T23:49:26.965Z,8.98
2023-11-16T23:51:53.536Z,8.98
2023-11-16T23:54:20.769Z,8.96
2023-11-16T23:56:47.474Z,8.87
2023-11-16T23:59:14.040Z,8.88
